createdAt,value
2018-05-11T00:02:03.013Z,65.20
2018-05-11T00:04:53.505Z,65.50
2018-05-11T00:07:23.871Z,65.50
2018-05-11T00:09:54.173Z,66.30
2018-05-11T00:12:24.480Z,68.30
2018-05-11T00:15:01.001Z,67.40
2018-05-11T00:17:32.103Z,68.20
2018-05-11T00:20:02.437Z,68.20
2018-05-11T00:22:32.812Z,67.90
2018-05-11T00:25:03.923Z,67.60
2018-05-11T00:27:34.282Z,67.60
2018-05-11T00:30:05.437Z,67.50
2018-05-11T00:32:35.778Z,67.50
2018-05-11T00:35:06.179Z,67.00
2018-05-11T00:37:58.633Z,68.00
2018-05-11T00:40:28.980Z,67.90
2018-05-11T00:43:18.444Z,68.30
2018-05-11T00:45:49.055Z,67.60
2018-05-11T00:48:20.180Z,68.50
2018-05-11T00:50:51.304Z,68.50
2018-05-11T00:53:21.667Z,68.40
2018-05-11T00:55:52.772Z,69.20
2018-05-11T00:58:23.133Z,69.10
2018-05-11T01:00:54.241Z,69.20
2018-05-11T01:03:24.807Z,69.20
2018-05-11T01:05:55.174Z,69.30
2018-05-11T01:08:27.557Z,69.50
2018-05-11T01:10:59.964Z,70.20
2018-05-11T01:13:31.098Z,70.80
2018-05-11T01:16:01.466Z,70.70
2018-05-11T01:18:31.808Z,71.20
2018-05-11T01:21:06.275Z,70.50
2018-05-11T01:23:36.626Z,70.60
2018-05-11T01:26:07.732Z,71.30
2018-05-11T01:28:40.316Z,71.30
2018-05-11T01:31:10.656Z,74.30
2018-05-11T01:33:41.765Z,72.10
2018-05-11T01:36:12.142Z,72.00
2018-05-11T01:38:43.245Z,71.40
2018-05-11T01:41:14.376Z,71.40
2018-05-11T01:43:46.784Z,71.40
2018-05-11T01:46:17.127Z,71.10
2018-05-11T01:48:47.555Z,70.40
2018-05-11T01:51:17.801Z,71.50
2018-05-11T01:53:48.139Z,70.90
2018-05-11T01:56:18.482Z,71.70
2018-05-11T01:58:48.875Z,70.70
2018-05-11T02:01:19.240Z,71.00
2018-05-11T02:03:49.576Z,71.00
2018-05-11T02:06:19.945Z,70.50
2018-05-11T02:08:50.309Z,70.40
2018-05-11T02:11:26.827Z,70.80
2018-05-11T02:13:57.955Z,71.80
2018-05-11T02:16:31.107Z,72.40
2018-05-11T02:19:06.593Z,72.40
2018-05-11T02:21:36.953Z,70.70
2018-05-11T02:26:52.550Z,69.70
2018-05-11T02:29:23.931Z,69.90
2018-05-11T02:31:54.295Z,70.00
2018-05-11T02:34:25.432Z,70.30
2018-05-11T02:36:55.797Z,70.30
2018-05-11T02:39:26.150Z,70.00
2018-05-11T02:42:16.894Z,70.10
2018-05-11T02:44:48.003Z,70.20
2018-05-11T02:47:19.329Z,70.10
2018-05-11T02:49:50.677Z,71.00
2018-05-11T02:52:23.078Z,70.20
2018-05-11T02:54:57.548Z,70.50
2018-05-11T02:57:28.893Z,71.60
2018-05-11T03:00:00.001Z,72.60
2018-05-11T03:02:30.318Z,72.60
2018-05-11T03:05:00.648Z,72.30
2018-05-11T03:07:30.981Z,72.40
2018-05-11T03:10:01.362Z,72.60
2018-05-11T03:12:31.707Z,72.20
2018-05-11T03:15:02.048Z,72.60
2018-05-11T03:17:32.416Z,73.90
2018-05-11T03:20:03.544Z,72.20
2018-05-11T03:22:33.886Z,72.10
2018-05-11T03:25:05.030Z,73.00
2018-05-11T03:27:36.128Z,73.40
2018-05-11T03:30:07.259Z,72.90
2018-05-11T03:32:57.742Z,73.80
2018-05-11T03:35:33.215Z,73.90
2018-05-11T03:38:03.572Z,74.20
2018-05-11T03:40:34.671Z,73.80
2018-05-11T03:43:05.039Z,73.80
2018-05-11T03:45:36.167Z,74.20
2018-05-11T03:48:06.499Z,74.20
2018-05-11T03:50:36.794Z,73.10
2018-05-11T03:53:28.580Z,74.00
2018-05-11T03:55:58.914Z,73.90
2018-05-11T03:58:29.242Z,74.30
2018-05-11T04:00:59.574Z,75.50
2018-05-11T04:04:24.432Z,73.80
2018-05-11T04:07:49.667Z,74.70
2018-05-11T04:10:20.769Z,73.60
2018-05-11T04:12:51.106Z,73.60
2018-05-11T04:15:21.472Z,73.50
2018-05-11T04:17:51.771Z,73.50
2018-05-11T04:20:22.111Z,73.40
2018-05-11T04:22:52.744Z,75.70
2018-05-11T04:25:23.843Z,76.40
2018-05-11T04:27:54.169Z,76.40
2018-05-11T04:30:24.523Z,74.70
2018-05-11T04:32:55.616Z,75.30
2018-05-11T04:35:32.108Z,75.40
2018-05-11T04:38:02.456Z,75.90
2018-05-11T04:40:32.801Z,75.30
2018-05-11T04:43:03.171Z,76.70
2018-05-11T04:45:54.928Z,76.00
2018-05-11T04:48:25.264Z,76.70
2018-05-11T04:50:56.385Z,75.60
2018-05-11T04:53:26.722Z,75.10
2018-05-11T04:55:57.074Z,77.30
2018-05-11T04:58:28.199Z,74.80
2018-05-11T05:00:59.305Z,76.10
2018-05-11T05:03:29.660Z,76.10
2018-05-11T05:06:00.013Z,77.10
2018-05-11T05:08:31.128Z,76.00
2018-05-11T05:11:01.499Z,75.90
2018-05-11T05:13:31.807Z,76.00
2018-05-11T05:16:02.151Z,76.80
2018-05-11T05:18:32.531Z,76.40
2018-05-11T05:21:02.874Z,76.30
2018-05-11T05:23:34.033Z,75.20
2018-05-11T05:26:23.708Z,75.20
2018-05-11T05:28:54.824Z,77.30
2018-05-11T05:31:25.159Z,77.30
2018-05-11T05:33:56.295Z,76.10
2018-05-11T05:36:26.659Z,75.90
2018-05-11T05:38:56.992Z,75.30
2018-05-11T05:41:29.427Z,75.20
2018-05-11T05:44:00.533Z,75.20
2018-05-11T05:46:31.861Z,74.50
2018-05-11T05:49:02.228Z,75.50
2018-05-11T05:51:32.573Z,75.40
2018-05-11T05:54:02.916Z,75.50
2018-05-11T05:56:33.296Z,75.60
2018-05-11T05:59:03.640Z,75.50
2018-05-11T06:01:33.950Z,75.60
2018-05-11T06:04:05.399Z,75.00
2018-05-11T06:06:35.699Z,75.00
2018-05-11T06:09:06.036Z,74.70
2018-05-11T06:11:36.403Z,74.90
2018-05-11T06:14:07.787Z,74.50
2018-05-11T06:16:39.181Z,74.90
2018-05-11T06:19:09.547Z,75.70
2018-05-11T06:21:39.903Z,74.40
2018-05-11T06:24:30.654Z,75.40
2018-05-11T06:27:01.755Z,74.20
2018-05-11T06:29:54.570Z,74.00
2018-05-11T06:32:24.921Z,72.90
2018-05-11T06:37:45.718Z,72.30
2018-05-11T06:40:16.079Z,72.30
2018-05-11T06:43:06.833Z,72.30
2018-05-11T06:45:38.029Z,71.40
2018-05-11T06:48:30.590Z,70.90
2018-05-11T06:51:00.932Z,70.80
2018-05-11T06:53:31.276Z,70.10
2018-05-11T06:56:02.420Z,70.70
2018-05-11T06:58:32.776Z,70.60
2018-05-11T07:01:03.140Z,69.50
2018-05-11T07:03:33.502Z,69.20
2018-05-11T07:06:04.600Z,68.60
2018-05-11T07:08:35.173Z,68.60
2018-05-11T07:11:05.529Z,68.50
2018-05-11T07:13:35.883Z,68.60
2018-05-11T07:16:28.694Z,68.40
2018-05-11T07:18:58.997Z,68.40
2018-05-11T07:21:30.091Z,68.70
2018-05-11T07:24:21.836Z,68.70
2018-05-11T07:26:52.196Z,68.00
2018-05-11T07:29:23.316Z,68.50
2018-05-11T07:31:53.703Z,68.40
2018-05-11T07:34:26.094Z,67.50
2018-05-11T07:36:58.491Z,67.40
2018-05-11T07:39:28.877Z,67.40
2018-05-11T07:41:59.209Z,66.90
2018-05-11T07:44:36.893Z,65.70
2018-05-11T07:47:07.233Z,66.10
2018-05-11T07:49:56.715Z,65.80
2018-05-11T07:52:27.054Z,65.60
2018-05-11T07:54:57.400Z,66.20
2018-05-11T07:57:27.774Z,64.90
2018-05-11T07:59:58.121Z,63.10
2018-05-11T08:02:28.463Z,64.40
2018-05-11T08:04:58.811Z,63.20
2018-05-11T08:07:29.915Z,62.00
2018-05-11T08:10:00.252Z,62.00
2018-05-11T08:12:30.622Z,59.40
2018-05-11T08:15:01.722Z,61.20
2018-05-11T08:17:32.053Z,61.20
2018-05-11T08:20:02.416Z,61.70
2018-05-11T08:22:32.761Z,60.00
2018-05-11T08:25:04.149Z,59.70
2018-05-11T08:27:34.499Z,59.10
2018-05-11T08:30:05.666Z,54.60
2018-05-11T08:32:55.295Z,54.60
2018-05-11T08:35:25.636Z,54.90
2018-05-11T08:37:55.992Z,55.90
2018-05-11T08:40:26.358Z,55.50
2018-05-11T08:42:56.693Z,54.10
2018-05-11T08:45:27.026Z,54.30
2018-05-11T08:47:57.435Z,53.40
2018-05-11T08:50:28.483Z,49.50
2018-05-11T08:52:58.832Z,49.40
2018-05-11T08:55:29.211Z,49.50
2018-05-11T08:58:01.609Z,50.00
2018-05-11T09:00:32.964Z,50.40
2018-05-11T09:03:03.425Z,50.60
2018-05-11T09:05:33.676Z,50.00
2018-05-11T09:08:03.988Z,51.80
2018-05-11T09:10:34.367Z,50.70
2018-05-11T09:13:04.664Z,50.20
2018-05-11T09:15:39.167Z,51.00
2018-05-11T09:18:09.460Z,51.40
2018-05-11T09:20:40.569Z,52.60
2018-05-11T09:23:10.906Z,52.20
2018-05-11T09:25:43.321Z,51.70
2018-05-11T09:28:14.388Z,51.30
2018-05-11T09:30:44.723Z,51.20
2018-05-11T09:33:15.047Z,51.40
2018-05-11T09:35:52.732Z,51.80
2018-05-11T09:38:23.107Z,50.90
2018-05-11T09:40:53.441Z,50.70
2018-05-11T09:43:23.796Z,52.10
2018-05-11T09:45:54.177Z,52.50
2018-05-11T09:48:24.531Z,52.60
2018-05-11T09:50:55.887Z,51.00
2018-05-11T09:53:27.280Z,51.00
2018-05-11T09:55:57.619Z,50.80
2018-05-11T09:58:28.943Z,52.00
2018-05-11T10:01:04.419Z,51.20
2018-05-11T10:03:34.774Z,51.90
2018-05-11T10:06:05.872Z,51.60
2018-05-11T10:08:36.246Z,51.50
2018-05-11T10:11:07.368Z,50.60
2018-05-11T10:13:37.717Z,50.50
2018-05-11T10:16:08.855Z,51.60
2018-05-11T10:18:39.965Z,51.00
2018-05-11T10:21:10.268Z,50.80
2018-05-11T10:24:00.011Z,50.90
2018-05-11T10:26:31.381Z,49.90
2018-05-11T10:29:01.789Z,50.20
2018-05-11T10:31:32.139Z,50.10
2018-05-11T10:34:02.482Z,50.20
2018-05-11T10:36:32.785Z,49.00
2018-05-11T10:39:03.394Z,48.00
2018-05-11T10:41:33.735Z,47.10
2018-05-11T10:44:04.080Z,49.70
2018-05-11T10:46:34.466Z,47.00
2018-05-11T10:51:50.804Z,48.40
2018-05-11T10:54:21.159Z,49.30
2018-05-11T10:57:13.725Z,48.40
2018-05-11T10:59:44.079Z,48.40
2018-05-11T11:02:15.519Z,47.30
2018-05-11T11:04:46.559Z,48.30
2018-05-11T11:07:16.863Z,48.30
2018-05-11T11:09:47.163Z,48.40
2018-05-11T11:12:22.659Z,49.30
2018-05-11T11:14:53.023Z,48.90
2018-05-11T11:17:23.369Z,49.90
2018-05-11T11:20:13.111Z,49.30
2018-05-11T11:22:44.205Z,47.10
2018-05-11T11:25:14.561Z,47.10
2018-05-11T11:27:45.692Z,47.50
2018-05-11T11:30:16.036Z,47.10
2018-05-11T11:32:47.394Z,47.60
2018-05-11T11:35:18.516Z,47.20
2018-05-11T11:37:48.873Z,47.10
2018-05-11T11:40:19.314Z,48.60
2018-05-11T11:43:11.769Z,47.20
2018-05-11T11:45:43.131Z,47.20
2018-05-11T11:48:32.873Z,45.80
2018-05-11T11:51:04.997Z,46.60
2018-05-11T11:53:35.349Z,46.50
2018-05-11T11:56:05.711Z,46.50
2018-05-11T11:58:36.068Z,46.00
2018-05-11T12:01:06.405Z,46.50
2018-05-11T12:03:36.769Z,47.00
2018-05-11T12:06:07.115Z,45.90
2018-05-11T12:08:37.452Z,47.70
2018-05-11T12:11:28.169Z,46.70
2018-05-11T12:13:58.505Z,45.10
2018-05-11T12:16:28.844Z,45.90
2018-05-11T12:18:59.214Z,47.50
2018-05-11T12:21:30.566Z,44.80
2018-05-11T12:24:00.978Z,44.70
2018-05-11T12:26:52.692Z,45.70
2018-05-11T12:29:23.048Z,46.70
2018-05-11T12:31:53.489Z,47.10
2018-05-11T12:34:23.764Z,47.50
2018-05-11T12:36:55.080Z,44.70
2018-05-11T12:39:25.415Z,44.60
2018-05-11T12:41:55.778Z,45.30
2018-05-11T12:44:26.130Z,46.20
2018-05-11T12:46:56.484Z,46.70
2018-05-11T12:49:26.869Z,45.70
2018-05-11T12:51:57.211Z,46.10
2018-05-11T12:54:27.544Z,44.00
2018-05-11T12:57:19.349Z,44.10
2018-05-11T12:59:49.703Z,44.50
2018-05-11T13:02:20.001Z,45.10
2018-05-11T13:04:50.386Z,44.70
2018-05-11T13:07:20.691Z,44.70
2018-05-11T13:09:51.252Z,44.30
2018-05-11T13:12:22.588Z,45.40
2018-05-11T13:14:52.924Z,45.40
2018-05-11T13:17:24.044Z,44.20
2018-05-11T13:19:54.424Z,44.20
2018-05-11T13:22:24.768Z,44.30
2018-05-11T13:25:16.305Z,45.10
2018-05-11T13:27:50.732Z,45.10
2018-05-11T13:30:24.467Z,43.80
2018-05-11T13:32:55.476Z,43.80
2018-05-11T13:35:25.802Z,43.70
2018-05-11T13:37:56.178Z,44.00
2018-05-11T13:40:26.527Z,42.90
2018-05-11T13:43:00.951Z,44.10
2018-05-11T13:45:31.333Z,44.40
2018-05-11T13:48:02.406Z,45.10
2018-05-11T13:50:32.738Z,45.10
2018-05-11T13:53:05.142Z,44.70
2018-05-11T13:55:35.479Z,44.30
2018-05-11T13:58:05.811Z,43.80
2018-05-11T14:00:36.168Z,44.20
2018-05-11T14:03:06.521Z,45.60
2018-05-11T14:05:36.863Z,44.60
2018-05-11T14:08:07.226Z,43.00
2018-05-11T14:10:37.570Z,42.80
2018-05-11T14:13:07.915Z,43.10
2018-05-11T14:15:38.280Z,43.10
2018-05-11T14:18:08.620Z,44.00
2018-05-11T14:20:38.974Z,44.40
2018-05-11T14:23:09.352Z,43.20
2018-05-11T14:25:39.684Z,44.00
2018-05-11T14:28:10.033Z,46.00
2018-05-11T14:30:41.124Z,43.60
2018-05-11T14:33:11.463Z,43.50
2018-05-11T14:35:41.799Z,43.90
2018-05-11T14:38:12.189Z,43.20
2018-05-11T14:40:42.528Z,43.90
2018-05-11T14:43:12.875Z,43.70
2018-05-11T14:45:43.248Z,44.40
2018-05-11T14:48:13.589Z,44.70
2018-05-11T14:50:43.931Z,43.80
2018-05-11T14:53:33.687Z,42.70
2018-05-11T14:56:04.047Z,43.50
2018-05-11T14:58:34.400Z,44.50
2018-05-11T15:03:47.994Z,45.50
2018-05-11T15:06:18.343Z,44.60
2018-05-11T15:09:10.864Z,44.60
2018-05-11T15:11:41.247Z,44.60
2018-05-11T15:14:11.587Z,43.40
2018-05-11T15:16:41.930Z,45.30
2018-05-11T15:19:13.338Z,44.30
2018-05-11T15:21:43.674Z,43.70
2018-05-11T15:24:14.012Z,44.40
2018-05-11T15:26:44.370Z,44.60
2018-05-11T15:29:14.705Z,45.10
2018-05-11T15:31:49.143Z,44.00
2018-05-11T15:34:24.588Z,43.80
2018-05-11T15:37:17.113Z,44.50
2018-05-11T15:39:49.537Z,44.50
2018-05-11T15:42:19.868Z,44.50
2018-05-11T15:44:50.216Z,44.20
2018-05-11T15:47:21.354Z,43.10
2018-05-11T15:49:52.421Z,43.60
2018-05-11T15:52:22.768Z,43.50
2018-05-11T15:54:55.141Z,43.50
2018-05-11T15:57:26.497Z,43.70
2018-05-11T15:59:56.843Z,43.50
2018-05-11T16:02:27.232Z,43.90
2018-05-11T16:04:59.618Z,43.80
2018-05-11T16:07:52.411Z,43.90
2018-05-11T16:10:22.763Z,43.40
2018-05-11T16:12:53.268Z,43.60
2018-05-11T16:15:27.562Z,44.30
2018-05-11T16:17:57.923Z,44.70
2018-05-11T16:20:28.273Z,45.70
2018-05-11T16:22:58.628Z,45.20
2018-05-11T16:25:28.983Z,45.80
2018-05-11T16:28:00.079Z,45.30
2018-05-11T16:30:30.661Z,45.30
2018-05-11T16:33:01.777Z,44.40
2018-05-11T16:35:32.129Z,44.40
2018-05-11T16:38:03.219Z,46.50
2018-05-11T16:40:54.733Z,45.50
2018-05-11T16:43:25.064Z,45.50
2018-05-11T16:45:59.486Z,45.10
2018-05-11T16:48:29.832Z,46.10
2018-05-11T16:51:00.218Z,46.70
2018-05-11T16:53:30.586Z,46.60
2018-05-11T16:56:00.918Z,46.10
2018-05-11T16:58:31.314Z,47.20
2018-05-11T17:01:01.664Z,46.80
2018-05-11T17:03:32.004Z,47.10
2018-05-11T17:06:02.331Z,47.00
2018-05-11T17:08:32.668Z,46.70
2018-05-11T17:11:03.778Z,46.00
2018-05-11T17:13:34.156Z,45.80
2018-05-11T17:16:05.255Z,46.90
2018-05-11T17:18:35.556Z,46.80
2018-05-11T17:21:05.921Z,46.50
2018-05-11T17:23:36.223Z,46.60
2018-05-11T17:26:06.580Z,46.10
2018-05-11T17:28:38.753Z,47.50
2018-05-11T17:31:10.116Z,47.50
2018-05-11T17:33:40.477Z,47.50
2018-05-11T17:36:10.839Z,46.80
2018-05-11T17:38:41.175Z,47.30
2018-05-11T17:41:12.300Z,48.90
2018-05-11T17:43:42.685Z,48.80
2018-05-11T17:46:14.058Z,48.30
2018-05-11T17:48:44.411Z,49.20
2018-05-11T17:51:14.745Z,48.90
2018-05-11T17:53:45.845Z,50.20
2018-05-11T17:56:18.219Z,49.70
2018-05-11T17:58:48.589Z,49.30
2018-05-11T18:01:19.688Z,50.20
2018-05-11T18:03:53.097Z,50.10
2018-05-11T18:06:23.493Z,50.10
2018-05-11T18:08:54.855Z,50.10
2018-05-11T18:11:25.191Z,50.40
2018-05-11T18:13:57.614Z,51.20
2018-05-11T18:16:28.170Z,50.60
2018-05-11T18:18:58.497Z,51.30
2018-05-11T18:21:29.603Z,50.80
2018-05-11T18:24:00.709Z,51.00
2018-05-11T18:26:31.017Z,51.00
2018-05-11T18:29:05.482Z,50.80
2018-05-11T18:31:35.846Z,50.60
2018-05-11T18:34:06.220Z,51.10
2018-05-11T18:36:36.587Z,50.60
2018-05-11T18:39:07.693Z,50.60
2018-05-11T18:41:38.062Z,50.60
2018-05-11T18:44:08.435Z,50.60
2018-05-11T18:46:38.772Z,50.90
2018-05-11T18:49:10.129Z,51.40
2018-05-11T18:51:40.508Z,52.10
2018-05-11T18:54:12.234Z,52.20
2018-05-11T18:57:03.404Z,51.90
2018-05-11T18:59:40.893Z,51.90
2018-05-11T19:02:14.361Z,53.80
2018-05-11T19:04:44.690Z,52.70
2018-05-11T19:07:15.042Z,53.30
2018-05-11T19:09:45.421Z,53.90
2018-05-11T19:12:16.552Z,53.70
2018-05-11T19:14:47.656Z,54.60
2018-05-11T19:20:02.244Z,55.30
2018-05-11T19:22:32.626Z,55.70
2018-05-11T19:25:02.948Z,56.40
2018-05-11T19:27:34.065Z,57.00
2018-05-11T19:30:05.208Z,57.70
2018-05-11T19:32:36.336Z,57.70
2018-05-11T19:35:06.694Z,57.70
2018-05-11T19:37:37.840Z,57.60
2018-05-11T19:40:08.152Z,57.60
2018-05-11T19:42:38.515Z,57.10
2018-05-11T19:45:08.881Z,57.30
2018-05-11T19:47:39.221Z,58.50
2018-05-11T19:50:10.344Z,56.90
2018-05-11T19:52:42.756Z,56.60
2018-05-11T19:55:13.855Z,56.00
2018-05-11T19:57:44.226Z,55.90
2018-05-11T20:00:14.609Z,55.40
2018-05-11T20:02:44.967Z,56.10
2018-05-11T20:05:16.372Z,56.00
2018-05-11T20:08:07.884Z,56.40
2018-05-11T20:10:44.380Z,56.30
2018-05-11T20:13:14.746Z,57.50
2018-05-11T20:15:45.103Z,58.70
2018-05-11T20:18:21.643Z,58.20
2018-05-11T20:20:51.951Z,58.00
2018-05-11T20:23:22.311Z,58.70
2018-05-11T20:25:52.646Z,59.00
2018-05-11T20:28:22.987Z,59.10
2018-05-11T20:31:13.493Z,59.00
2018-05-11T20:33:43.836Z,58.90
2018-05-11T20:36:14.173Z,59.20
2018-05-11T20:38:45.308Z,60.00
2018-05-11T20:41:15.670Z,59.90
2018-05-11T20:43:46.291Z,59.60
2018-05-11T20:46:17.446Z,58.80
2018-05-11T20:48:47.780Z,58.80
2018-05-11T20:51:18.395Z,59.20
2018-05-11T20:53:48.750Z,58.40
2018-05-11T20:56:21.127Z,58.50
2018-05-11T20:58:55.595Z,58.60
2018-05-11T21:01:26.700Z,58.90
2018-05-11T21:04:17.262Z,59.90
2018-05-11T21:07:08.953Z,59.90
2018-05-11T21:09:39.307Z,61.50
2018-05-11T21:12:09.668Z,61.20
2018-05-11T21:14:40.023Z,62.50
2018-05-11T21:17:12.434Z,61.60
2018-05-11T21:19:42.792Z,60.80
2018-05-11T21:22:17.216Z,59.90
2018-05-11T21:24:54.743Z,59.50
2018-05-11T21:27:27.352Z,59.50
2018-05-11T21:29:59.472Z,60.50
2018-05-11T21:32:30.166Z,60.40
2018-05-11T21:35:00.500Z,59.90
2018-05-11T21:37:30.837Z,58.50
2018-05-11T21:40:01.199Z,58.50
2018-05-11T21:42:31.535Z,58.20
2018-05-11T21:45:01.840Z,57.80
2018-05-11T21:47:32.205Z,58.10
2018-05-11T21:50:02.566Z,57.90
2018-05-11T21:52:37.023Z,58.00
2018-05-11T21:55:07.400Z,57.80
2018-05-11T21:57:37.747Z,57.90
2018-05-11T22:00:30.295Z,57.60
2018-05-11T22:03:00.629Z,57.50
2018-05-11T22:05:30.987Z,57.60
2018-05-11T22:08:02.117Z,57.90
2018-05-11T22:10:32.776Z,57.60
2018-05-11T22:13:04.896Z,57.90
2018-05-11T22:15:38.323Z,57.90
2018-05-11T22:18:09.490Z,58.90
2018-05-11T22:20:41.828Z,58.20
2018-05-11T22:23:12.170Z,58.50
2018-05-11T22:25:42.520Z,58.70
2018-05-11T22:28:12.861Z,58.80
2018-05-11T22:30:43.233Z,59.10
2018-05-11T22:33:14.622Z,58.90
2018-05-11T22:35:45.246Z,59.00
2018-05-11T22:38:16.367Z,58.90
2018-05-11T22:40:46.729Z,58.90
2018-05-11T22:43:17.094Z,59.10
2018-05-11T22:45:47.449Z,59.40
2018-05-11T22:48:17.799Z,59.30
2018-05-11T22:50:49.164Z,59.20
2018-05-11T22:53:19.535Z,59.60
2018-05-11T22:55:49.871Z,59.80
2018-05-11T22:58:20.221Z,59.70
2018-05-11T23:00:51.341Z,60.00
2018-05-11T23:03:21.679Z,60.10
2018-05-11T23:05:52.785Z,59.90
2018-05-11T23:08:23.169Z,59.90
2018-05-11T23:10:53.486Z,59.80
2018-05-11T23:13:23.848Z,59.70
2018-05-11T23:16:01.519Z,59.60
2018-05-11T23:18:31.828Z,59.50
2018-05-11T23:21:02.952Z,60.00
2018-05-11T23:23:33.327Z,59.90
2018-05-11T23:26:04.654Z,60.20
2018-05-11T23:31:19.985Z,60.40
2018-05-11T23:33:57.483Z,60.90
2018-05-11T23:36:31.925Z,60.90
2018-05-11T23:39:02.290Z,60.90
2018-05-11T23:41:32.642Z,61.20
2018-05-11T23:44:06.309Z,61.30
2018-05-11T23:46:37.421Z,62.00
2018-05-11T23:49:07.776Z,61.80
2018-05-11T23:51:38.903Z,62.30
2018-05-11T23:54:09.257Z,62.30
2018-05-11T23:56:39.607Z,62.40
2018-05-11T23:59:14.057Z,62.50
